»·PEaware :: HAWG11 KLSV-KLSV

HAWG11 :: KLSV-KLSV

FLIGHT INFORMATION

Flight Status: Arrived
Operator: Unknown
More flights by this operator :: More flights under this callsign
Pilot: Logan D. (20254)
Aircraft: FAIRCHILD A-10 THUNDERBOLT 2
(A10)
More flights by this aircraft type
Origin: KLSV Nellis AFB
United States
Destination: KLSV Nellis AFB
United States
More flights between these airports :: More routes between these airports
Route: LSV FYTTR5 FYTTR INS/D1+00 INS LSV
File this flight plan on PilotEdge
Remarks: +CW / ENRTE DELAY IN R-4806W FOR 0+30MIN
Altitude:
(Current/Filed)
15,000ft
Speed:
(Current/Filed)
250kts
Departed: 15-Mar-19 05:15 PM
Arrived: 15-Mar-19 06:28 PM
Distance/Time
Traveled:
0nm/1:13
Distance/Time
To Go:
Arrived

Flight Plot

Page will automatically refresh every two minutes.

Flight plan parsing failed; only flown route is shown


Map Options




Map Legend


Flown Route
Filed Route
Departure Airport
Arrival Airport
Navaid (VOR, NDB)
Fix

Horizontal Profiles

Position Reports

Time Latitude Longitude Heading Altitude Ground
Speed
15-Mar-19 16:54 36.229401 -115.024022 86 1850ft 0kts
15-Mar-19 16:55 36.229401 -115.024022 86 1850ft 0kts
15-Mar-19 16:55 36.229401 -115.024022 86 1850ft 0kts
15-Mar-19 16:56 36.229401 -115.024022 86 1850ft 0kts
15-Mar-19 16:57 36.229401 -115.024022 86 1850ft 0kts
15-Mar-19 16:58 36.229401 -115.024022 86 1850ft 0kts
15-Mar-19 16:59 36.229401 -115.024022 86 1850ft 0kts
15-Mar-19 17:00 36.229401 -115.024022 86 1850ft 0kts
15-Mar-19 17:01 36.229401 -115.024022 86 1850ft 0kts
15-Mar-19 17:02 36.229401 -115.024022 86 1850ft 0kts
15-Mar-19 17:03 36.229401 -115.024022 86 1850ft 0kts
15-Mar-19 17:04 36.229401 -115.024022 86 1850ft 0kts
15-Mar-19 17:05 36.229401 -115.024022 86 1850ft 0kts
15-Mar-19 17:06 36.229401 -115.024022 86 1850ft 0kts
15-Mar-19 17:07 36.229462 -115.023788 36 1850ft 5kts
15-Mar-19 17:08 36.230359 -115.026286 312 1850ft 15kts
15-Mar-19 17:09 36.230702 -115.031627 243 1849ft 14kts
15-Mar-19 17:10 36.227076 -115.035626 220 1850ft 19kts
15-Mar-19 17:11 36.222680 -115.040416 233 1848ft 15kts
15-Mar-19 17:12 36.224401 -115.043298 324 1848ft 0kts
15-Mar-19 17:13 36.225137 -115.043798 3 1848ft 10kts
15-Mar-19 17:14 36.241265 -115.026444 40 2064ft 167kts
15-Mar-19 17:15 36.284041 -114.978285 40 3979ft 229kts
15-Mar-19 17:16 36.334374 -114.922673 21 6167ft 244kts
15-Mar-19 17:17 36.380431 -114.966883 265 7864ft 251kts
15-Mar-19 17:18 36.340750 -115.039202 223 9485ft 269kts
15-Mar-19 17:19 36.285240 -115.106420 224 10511ft 289kts
15-Mar-19 17:20 36.280365 -115.199649 280 11168ft 291kts
15-Mar-19 17:21 36.295605 -115.293591 280 13233ft 264kts
15-Mar-19 17:22 36.310850 -115.384909 280 14434ft 276kts
15-Mar-19 17:23 36.326763 -115.480210 280 15290ft 288kts
15-Mar-19 17:24 36.344021 -115.582565 281 15146ft 311kts
15-Mar-19 17:25 36.361729 -115.688457 281 15160ft 314kts
15-Mar-19 17:26 36.424881 -115.731373 13 15002ft 314kts
15-Mar-19 17:27 36.510251 -115.705746 13 15003ft 315kts
15-Mar-19 17:28 36.595636 -115.678741 14 14999ft 315kts
15-Mar-19 17:29 36.681218 -115.653646 12 15170ft 308kts
15-Mar-19 17:30 36.758671 -115.631745 12 15313ft 270kts
15-Mar-19 17:31 36.832873 -115.610672 6 15429ft 287kts
15-Mar-19 17:32 36.899104 -115.661768 287 15122ft 304kts
15-Mar-19 17:33 36.872256 -115.753971 207 15124ft 305kts
15-Mar-19 17:34 36.794914 -115.737294 128 15125ft 307kts
15-Mar-19 17:35 36.756744 -115.640385 113 15098ft 313kts
15-Mar-19 17:36 36.712167 -115.547797 148 15047ft 315kts
15-Mar-19 17:37 36.633994 -115.566491 234 15066ft 314kts
15-Mar-19 17:38 36.643774 -115.664486 329 15071ft 312kts
15-Mar-19 17:39 36.720376 -115.621637 35 14828ft 313kts
15-Mar-19 17:40 36.790227 -115.555109 34 14770ft 318kts
15-Mar-19 17:41 36.866570 -115.505764 350 14822ft 313kts
15-Mar-19 17:42 36.918129 -115.580848 248 14462ft 315kts
15-Mar-19 17:43 36.841965 -115.614799 163 14170ft 325kts
15-Mar-19 17:44 36.845674 -115.533475 47 14138ft 321kts
15-Mar-19 17:45 36.912448 -115.474528 329 14508ft 304kts
15-Mar-19 17:46 36.912055 -115.563045 196 14615ft 305kts
15-Mar-19 17:47 36.855235 -115.512330 71 14149ft 320kts
15-Mar-19 17:48 36.836560 -115.431360 180 12279ft 334kts
15-Mar-19 17:49 36.831610 -115.522327 294 12747ft 314kts
15-Mar-19 17:50 36.889000 -115.503327 67 12571ft 324kts
15-Mar-19 17:51 36.876094 -115.407964 156 12530ft 332kts
15-Mar-19 17:52 36.801606 -115.457932 222 12534ft 332kts
15-Mar-19 17:53 36.765362 -115.555691 272 12349ft 298kts
15-Mar-19 17:54 36.804714 -115.632738 335 12349ft 262kts
15-Mar-19 17:55 36.871384 -115.619892 42 12349ft 253kts
15-Mar-19 17:56 36.878186 -115.543851 139 12886ft 246kts
15-Mar-19 17:57 36.809451 -115.548048 201 14775ft 277kts
15-Mar-19 17:58 36.732912 -115.591217 209 15141ft 322kts
15-Mar-19 17:59 36.713674 -115.689938 304 15142ft 333kts
15-Mar-19 18:00 36.796119 -115.705346 39 15142ft 336kts
15-Mar-19 18:01 36.801862 -115.601925 133 15142ft 336kts
15-Mar-19 18:02 36.718090 -115.603221 228 15142ft 336kts
15-Mar-19 18:03 36.726052 -115.706515 323 15162ft 336kts
15-Mar-19 18:04 36.808415 -115.688419 61 15184ft 333kts
15-Mar-19 18:05 36.750141 -115.633108 188 15014ft 331kts
15-Mar-19 18:06 36.657651 -115.651223 188 15029ft 337kts
15-Mar-19 18:07 36.567852 -115.668288 175 15005ft 295kts
15-Mar-19 18:08 36.529989 -115.592751 103 14770ft 271kts
15-Mar-19 18:09 36.509605 -115.497170 103 12516ft 283kts
15-Mar-19 18:10 36.490218 -115.406736 103 10355ft 258kts
15-Mar-19 18:11 36.467921 -115.317818 107 9013ft 269kts
15-Mar-19 18:12 36.444244 -115.232128 107 9008ft 256kts
15-Mar-19 18:13 36.422826 -115.148962 104 9015ft 249kts
15-Mar-19 18:14 36.433548 -115.066882 52 8356ft 267kts
15-Mar-19 18:15 36.470047 -115.005462 52 8040ft 211kts
15-Mar-19 18:16 36.506269 -114.943194 54 7988ft 211kts
15-Mar-19 18:17 36.538892 -114.883338 57 7445ft 220kts
15-Mar-19 18:18 36.558858 -114.817143 121 6768ft 215kts
15-Mar-19 18:19 36.521283 -114.760361 139 6554ft 225kts
15-Mar-19 18:20 36.470498 -114.716932 143 6578ft 215kts
15-Mar-19 18:21 36.424413 -114.754699 231 6262ft 277kts
15-Mar-19 18:22 36.385475 -114.833943 234 5894ft 215kts
15-Mar-19 18:23 36.347249 -114.893866 227 4891ft 213kts
15-Mar-19 18:24 36.312212 -114.946013 222 3711ft 186kts
15-Mar-19 18:25 36.275970 -114.988813 220 2935ft 171kts
15-Mar-19 18:26 36.244531 -115.022788 219 2064ft 125kts
15-Mar-19 18:27 36.232991 -115.034669 221 1849ft 0kts
15-Mar-19 18:28 36.232991 -115.034669 221 1849ft 0kts

Navigation Log

Ident Type
Flight plan parsing failed, navigation log unavailable